createdAt,value
2023-07-25T00:01:42.876Z,1.58
2023-07-25T00:04:31.375Z,1.52
2023-07-25T00:07:19.857Z,1.30
2023-07-25T00:10:09.400Z,1.60
2023-07-25T00:12:59.288Z,1.42
2023-07-25T00:15:47.747Z,1.30
2023-07-25T00:18:36.451Z,1.30
2023-07-25T00:21:25.021Z,1.42
2023-07-25T00:24:13.551Z,1.15
2023-07-25T00:27:02.088Z,1.52
2023-07-25T00:29:55.163Z,1.55
2023-07-25T00:32:43.829Z,1.88
2023-07-25T00:35:32.351Z,1.70
2023-07-25T00:38:20.816Z,1.23
2023-07-25T00:41:09.296Z,1.05
2023-07-25T00:43:57.810Z,1.55
2023-07-25T00:46:47.763Z,1.42
2023-07-25T00:49:36.350Z,1.48
2023-07-25T00:52:25.149Z,1.60
2023-07-25T00:55:15.252Z,1.40
2023-07-25T00:58:03.894Z,1.95
2023-07-25T01:00:52.453Z,1.45
2023-07-25T01:03:43.218Z,1.30
2023-07-25T01:06:32.410Z,1.40
2023-07-25T01:09:39.888Z,1.50
2023-07-25T01:12:28.421Z,1.55
2023-07-25T01:15:17.011Z,1.48
2023-07-25T01:18:07.504Z,1.02
2023-07-25T01:20:57.663Z,1.13
2023-07-25T01:23:47.473Z,1.38
2023-07-25T01:26:37.477Z,1.55
2023-07-25T01:29:26.167Z,1.10
2023-07-25T01:32:14.878Z,1.00
2023-07-25T01:35:04.167Z,1.67
2023-07-25T01:37:52.779Z,1.33
2023-07-25T01:40:41.428Z,1.20
2023-07-25T01:43:31.610Z,1.45
2023-07-25T01:46:20.256Z,1.40
2023-07-25T01:49:08.888Z,1.35
2023-07-25T01:51:57.552Z,1.38
2023-07-25T01:54:46.477Z,1.17
2023-07-25T01:57:35.150Z,1.20
2023-07-25T02:00:25.251Z,1.10
2023-07-25T02:03:17.112Z,1.33
2023-07-25T02:06:05.929Z,0.90
2023-07-25T02:08:54.608Z,1.05
2023-07-25T02:11:43.270Z,1.60
2023-07-25T02:14:32.150Z,0.93
2023-07-25T02:17:22.249Z,1.15
2023-07-25T02:20:11.565Z,0.95
2023-07-25T02:23:00.564Z,1.17
2023-07-25T02:25:49.187Z,1.80
2023-07-25T02:28:37.941Z,0.93
2023-07-25T02:31:29.940Z,1.20
2023-07-25T02:34:20.472Z,1.30
2023-07-25T02:37:11.986Z,1.08
2023-07-25T02:40:00.773Z,1.08
2023-07-25T02:42:49.416Z,1.40
2023-07-25T02:45:38.156Z,1.10
2023-07-25T02:48:26.849Z,1.20
2023-07-25T02:51:16.843Z,1.23
2023-07-25T02:54:05.595Z,1.50
2023-07-25T02:56:54.282Z,1.40
2023-07-25T02:59:42.912Z,1.13
2023-07-25T03:02:31.670Z,0.90
2023-07-25T03:05:20.558Z,1.40
2023-07-25T03:08:10.664Z,0.90
2023-07-25T03:10:59.328Z,1.42
2023-07-25T03:13:48.022Z,0.93
2023-07-25T03:16:36.759Z,1.42
2023-07-25T03:19:25.584Z,1.10
2023-07-25T03:22:14.334Z,1.27
2023-07-25T03:25:04.439Z,1.25
2023-07-25T03:27:53.790Z,1.15
2023-07-25T03:30:42.620Z,1.67
2023-07-25T03:33:31.402Z,1.50
2023-07-25T03:36:20.100Z,1.08
2023-07-25T03:39:08.826Z,1.10
2023-07-25T03:41:58.856Z,1.40
2023-07-25T03:44:47.515Z,1.60
2023-07-25T03:47:36.237Z,1.30
2023-07-25T03:50:25.073Z,1.20
2023-07-25T03:53:13.968Z,1.08
2023-07-25T03:56:04.056Z,1.30
2023-07-25T03:58:54.106Z,1.20
2023-07-25T04:01:42.876Z,1.30
2023-07-25T04:04:31.823Z,1.40
2023-07-25T04:07:20.614Z,0.98
2023-07-25T04:10:09.954Z,1.02
2023-07-25T04:12:58.548Z,1.10
2023-07-25T04:15:48.624Z,1.15
2023-07-25T04:18:37.331Z,1.60
2023-07-25T04:21:26.050Z,1.17
2023-07-25T04:24:14.757Z,1.75
2023-07-25T04:27:03.566Z,1.35
2023-07-25T04:29:52.267Z,1.35
2023-07-25T04:32:42.329Z,2.05
2023-07-25T04:35:31.030Z,1.50
2023-07-25T04:38:19.691Z,1.35
2023-07-25T04:41:08.426Z,1.83
2023-07-25T04:43:57.057Z,1.13
2023-07-25T04:46:45.687Z,1.17
2023-07-25T04:49:36.833Z,1.80
2023-07-25T04:52:25.584Z,1.25
2023-07-25T04:55:14.312Z,1.45
2023-07-25T04:58:03.666Z,0.90
2023-07-25T05:00:52.319Z,1.33
2023-07-25T05:03:41.044Z,1.63
2023-07-25T05:06:31.345Z,1.67
2023-07-25T05:09:22.988Z,0.90
2023-07-25T05:12:15.327Z,1.10
2023-07-25T05:15:04.502Z,1.63
2023-07-25T05:17:53.239Z,1.38
2023-07-25T05:20:41.944Z,1.05
2023-07-25T05:23:32.021Z,1.40
2023-07-25T05:26:20.701Z,1.23
2023-07-25T05:29:09.646Z,1.33
2023-07-25T05:31:58.361Z,1.27
2023-07-25T05:34:47.803Z,1.50
2023-07-25T05:37:37.555Z,1.60
2023-07-25T05:40:27.620Z,1.38
2023-07-25T05:43:17.838Z,1.23
2023-07-25T05:46:06.901Z,1.95
2023-07-25T05:48:55.745Z,1.40
2023-07-25T05:51:44.468Z,1.52
2023-07-25T05:54:33.110Z,1.70
2023-07-25T05:57:23.376Z,1.42
2023-07-25T06:00:12.986Z,1.15
2023-07-25T06:03:01.787Z,1.38
2023-07-25T06:05:50.663Z,1.35
2023-07-25T06:08:39.288Z,1.45
2023-07-25T06:11:28.859Z,1.40
2023-07-25T06:14:19.253Z,1.30
2023-07-25T06:17:08.304Z,1.45
2023-07-25T06:19:57.097Z,1.33
2023-07-25T06:22:45.743Z,1.60
2023-07-25T06:25:34.627Z,1.75
2023-07-25T06:28:23.377Z,1.55
2023-07-25T06:31:13.546Z,1.27
2023-07-25T06:34:02.380Z,1.30
2023-07-25T06:36:51.025Z,1.52
2023-07-25T06:39:39.741Z,1.55
2023-07-25T06:42:29.403Z,2.60
2023-07-25T06:45:18.116Z,1.40
2023-07-25T06:48:08.784Z,1.85
2023-07-25T06:50:57.425Z,1.20
2023-07-25T06:53:46.100Z,1.33
2023-07-25T06:56:34.779Z,1.55
2023-07-25T06:59:23.486Z,2.65
2023-07-25T07:02:12.149Z,2.10
2023-07-25T07:05:08.698Z,1.77
2023-07-25T07:08:01.027Z,2.22
2023-07-25T07:10:53.719Z,2.40
2023-07-25T07:13:42.431Z,2.00
2023-07-25T07:16:31.111Z,2.20
2023-07-25T07:19:19.815Z,2.00
2023-07-25T07:22:09.855Z,1.42
2023-07-25T07:24:58.619Z,1.75
2023-07-25T07:27:47.278Z,1.80
2023-07-25T07:30:36.061Z,2.13
2023-07-25T07:33:25.082Z,1.67
2023-07-25T07:36:13.887Z,2.05
2023-07-25T07:39:03.978Z,1.75
2023-07-25T07:41:52.874Z,1.60
2023-07-25T07:44:41.524Z,1.42
2023-07-25T07:47:30.289Z,1.55
2023-07-25T07:50:19.020Z,1.73
2023-07-25T07:53:07.851Z,1.27
2023-07-25T07:55:58.003Z,1.30
2023-07-25T07:58:46.907Z,1.45
2023-07-25T08:01:38.830Z,1.65
2023-07-25T08:04:29.278Z,1.20
2023-07-25T08:07:18.031Z,1.08
2023-07-25T08:10:07.386Z,1.30
2023-07-25T08:12:57.491Z,1.38
2023-07-25T08:15:46.240Z,1.05
2023-07-25T08:18:34.909Z,1.63
2023-07-25T08:21:23.630Z,1.02
2023-07-25T08:24:12.440Z,1.10
2023-07-25T08:27:01.452Z,0.98
2023-07-25T08:29:52.446Z,1.17
2023-07-25T08:32:41.234Z,1.27
2023-07-25T08:35:29.927Z,1.02
2023-07-25T08:38:18.570Z,1.38
2023-07-25T08:41:12.759Z,1.85
2023-07-25T08:44:04.600Z,0.73
2023-07-25T08:46:56.260Z,0.70
2023-07-25T08:49:48.896Z,0.88
2023-07-25T08:52:38.838Z,1.23
2023-07-25T08:55:28.629Z,1.15
2023-07-25T08:58:18.754Z,1.30
2023-07-25T09:01:07.644Z,1.10
2023-07-25T09:03:59.226Z,1.40
2023-07-25T09:06:48.201Z,1.58
2023-07-25T09:09:36.878Z,1.20
2023-07-25T09:12:25.716Z,0.85
2023-07-25T09:15:14.537Z,0.82
2023-07-25T09:18:03.251Z,0.95
2023-07-25T09:20:53.764Z,0.88
2023-07-25T09:23:43.287Z,0.73
2023-07-25T09:26:33.043Z,0.98
2023-07-25T09:29:28.016Z,1.00
2023-07-25T09:32:25.551Z,1.02
2023-07-25T09:35:14.422Z,0.98
2023-07-25T09:38:04.801Z,1.27
2023-07-25T09:40:53.475Z,1.10
2023-07-25T09:43:42.122Z,0.60
2023-07-25T09:46:31.059Z,1.30
2023-07-25T09:49:22.940Z,0.90
2023-07-25T09:52:11.864Z,0.98
2023-07-25T09:55:02.950Z,1.00
2023-07-25T09:57:51.750Z,1.10
2023-07-25T10:00:41.136Z,1.17
2023-07-25T10:03:31.229Z,1.42
2023-07-25T10:06:21.056Z,5.05
2023-07-25T10:09:10.994Z,3.05
2023-07-25T10:12:02.657Z,2.13
2023-07-25T10:14:51.429Z,1.50
2023-07-25T10:17:40.392Z,1.60
2023-07-25T10:20:29.440Z,1.27
2023-07-25T10:23:18.660Z,1.50
2023-07-25T10:26:14.151Z,1.55
2023-07-25T10:29:27.515Z,1.15
2023-07-25T10:32:17.654Z,1.70
2023-07-25T10:35:07.409Z,1.40
2023-07-25T10:37:56.232Z,1.70
2023-07-25T10:40:56.347Z,2.42
2023-07-25T10:44:02.505Z,2.22
2023-07-25T10:46:53.486Z,1.80
2023-07-25T10:49:56.742Z,1.45
2023-07-25T10:52:48.241Z,2.38
2023-07-25T10:55:36.964Z,1.75
2023-07-25T10:58:25.681Z,1.33
2023-07-25T11:01:34.574Z,1.38
2023-07-25T11:04:30.326Z,1.38
2023-07-25T11:07:20.719Z,1.70
2023-07-25T11:10:10.056Z,1.70
2023-07-25T11:13:00.091Z,1.42
2023-07-25T11:15:49.412Z,1.30
2023-07-25T11:18:39.866Z,1.48
2023-07-25T11:21:30.352Z,1.23
2023-07-25T11:24:20.895Z,1.15
2023-07-25T11:27:10.221Z,1.55
2023-07-25T11:30:12.219Z,1.52
2023-07-25T11:33:01.564Z,1.50
2023-07-25T11:35:54.540Z,1.23
2023-07-25T11:38:44.658Z,1.38
2023-07-25T11:41:33.748Z,1.50
2023-07-25T11:44:22.894Z,1.40
2023-07-25T11:47:12.300Z,1.90
2023-07-25T11:50:10.547Z,1.42
2023-07-25T11:53:10.136Z,1.48
2023-07-25T11:56:01.727Z,1.70
2023-07-25T11:58:51.808Z,1.30
2023-07-25T12:01:40.776Z,1.40
2023-07-25T12:04:29.590Z,1.42
2023-07-25T12:07:20.106Z,1.35
2023-07-25T12:10:10.492Z,0.85
2023-07-25T12:13:03.149Z,1.50
2023-07-25T12:15:51.974Z,1.33
2023-07-25T12:18:40.618Z,1.35
2023-07-25T12:21:31.049Z,1.20
2023-07-25T12:24:19.762Z,1.13
2023-07-25T12:27:18.051Z,1.95
2023-07-25T12:30:09.587Z,1.10
2023-07-25T12:32:58.697Z,1.38
2023-07-25T12:35:47.356Z,1.10
2023-07-25T12:38:36.007Z,0.90
2023-07-25T12:41:25.326Z,1.38
2023-07-25T12:44:14.726Z,1.00
2023-07-25T12:47:05.623Z,1.40
2023-07-25T12:49:54.309Z,1.20
2023-07-25T12:52:43.358Z,1.30
2023-07-25T12:55:32.055Z,1.15
2023-07-25T12:58:21.036Z,1.33
2023-07-25T13:01:09.736Z,1.95
2023-07-25T13:03:59.963Z,1.52
2023-07-25T13:06:48.764Z,1.20
2023-07-25T13:09:37.416Z,1.42
2023-07-25T13:12:26.189Z,1.38
2023-07-25T13:15:14.867Z,1.80
2023-07-25T13:18:03.746Z,1.60
2023-07-25T13:20:53.921Z,1.15
2023-07-25T13:23:42.623Z,0.85
2023-07-25T13:26:31.425Z,1.60
2023-07-25T13:29:20.147Z,1.15
2023-07-25T13:32:09.776Z,0.90
2023-07-25T13:34:58.482Z,1.05
2023-07-25T13:37:48.899Z,1.40
2023-07-25T13:40:37.709Z,1.20
2023-07-25T13:43:26.389Z,1.77
2023-07-25T13:46:15.002Z,1.50
2023-07-25T13:49:03.856Z,1.60
2023-07-25T13:51:52.494Z,1.27
2023-07-25T13:54:43.249Z,1.20
2023-07-25T13:57:33.755Z,2.00
2023-07-25T14:00:23.994Z,1.60
2023-07-25T14:03:12.752Z,1.67
2023-07-25T14:06:01.469Z,1.33
2023-07-25T14:08:50.098Z,1.40
2023-07-25T14:11:40.247Z,1.30
2023-07-25T14:14:29.166Z,1.30
2023-07-25T14:17:17.811Z,1.38
2023-07-25T14:20:07.492Z,1.25
2023-07-25T14:22:56.270Z,1.42
2023-07-25T14:25:45.055Z,1.13
2023-07-25T14:28:35.091Z,1.40
2023-07-25T14:31:23.800Z,1.35
2023-07-25T14:34:12.559Z,1.38
2023-07-25T14:37:01.221Z,1.10
2023-07-25T14:39:50.095Z,1.38
2023-07-25T14:42:38.789Z,1.70
2023-07-25T14:45:29.042Z,1.30
2023-07-25T14:48:17.881Z,1.50
2023-07-25T14:51:06.741Z,1.38
2023-07-25T14:53:55.555Z,1.48
2023-07-25T14:56:44.230Z,1.50
2023-07-25T14:59:33.348Z,1.42
2023-07-25T15:02:23.437Z,1.42
2023-07-25T15:05:12.280Z,1.70
2023-07-25T15:08:01.130Z,2.00
2023-07-25T15:10:49.811Z,1.73
2023-07-25T15:13:38.564Z,1.30
2023-07-25T15:16:27.486Z,1.88
2023-07-25T15:19:17.645Z,1.90
2023-07-25T15:22:06.837Z,1.30
2023-07-25T15:24:55.704Z,1.98
2023-07-25T15:27:44.406Z,1.83
2023-07-25T15:30:33.906Z,2.83
2023-07-25T15:33:22.694Z,1.98
2023-07-25T15:36:12.858Z,2.38
2023-07-25T15:39:04.852Z,2.42
2023-07-25T15:41:55.468Z,1.95
2023-07-25T15:44:44.151Z,1.60
2023-07-25T15:47:33.118Z,1.75
2023-07-25T15:50:23.982Z,2.03
2023-07-25T15:53:15.078Z,1.48
2023-07-25T15:56:03.904Z,1.75
2023-07-25T15:58:52.614Z,1.80
2023-07-25T16:01:41.474Z,1.52
2023-07-25T16:04:30.086Z,1.77
2023-07-25T16:07:18.848Z,2.08
2023-07-25T16:10:09.443Z,1.67
2023-07-25T16:13:00.293Z,1.40
2023-07-25T16:15:51.619Z,1.55
2023-07-25T16:18:41.682Z,1.80
2023-07-25T16:21:32.663Z,2.20
2023-07-25T16:24:21.665Z,1.30
2023-07-25T16:27:12.309Z,1.65
2023-07-25T16:30:01.241Z,1.23
2023-07-25T16:32:50.269Z,1.25
2023-07-25T16:35:39.036Z,1.50
2023-07-25T16:38:28.807Z,1.50
2023-07-25T16:41:18.898Z,1.50
2023-07-25T16:44:09.735Z,1.45
2023-07-25T16:46:58.841Z,1.90
2023-07-25T16:49:47.499Z,1.65
2023-07-25T16:52:36.774Z,6.38
2023-07-25T16:55:25.745Z,2.30
2023-07-25T16:58:14.475Z,2.05
2023-07-25T17:01:05.525Z,1.48
2023-07-25T17:03:54.276Z,1.80
2023-07-25T17:06:43.214Z,2.10
2023-07-25T17:09:31.873Z,1.58
2023-07-25T17:12:20.684Z,1.58
2023-07-25T17:15:10.448Z,2.13
2023-07-25T17:18:00.705Z,1.83
2023-07-25T17:20:49.748Z,1.70
2023-07-25T17:23:38.583Z,1.60
2023-07-25T17:26:27.288Z,6.65
2023-07-25T17:29:16.008Z,6.03
2023-07-25T17:32:05.179Z,6.75
2023-07-25T17:34:55.239Z,19.17
2023-07-25T17:37:43.993Z,11.20
2023-07-25T17:40:32.889Z,7.93
2023-07-25T17:43:21.564Z,4.18
2023-07-25T17:46:10.316Z,3.17
2023-07-25T17:49:01.234Z,2.47
2023-07-25T17:51:51.470Z,1.92
2023-07-25T17:54:40.610Z,2.20
2023-07-25T17:57:35.604Z,1.55
2023-07-25T18:00:24.826Z,1.48
2023-07-25T18:03:14.219Z,1.73
2023-07-25T18:06:03.491Z,1.70
2023-07-25T18:08:55.804Z,2.22
2023-07-25T18:11:45.074Z,1.75
2023-07-25T18:14:34.717Z,1.98
2023-07-25T18:17:24.678Z,1.50
2023-07-25T18:20:14.161Z,1.80
2023-07-25T18:23:03.817Z,1.30
2023-07-25T18:25:54.366Z,1.65
2023-07-25T18:28:49.556Z,1.63
2023-07-25T18:31:39.095Z,1.40
2023-07-25T18:34:28.483Z,1.42
2023-07-25T18:37:17.629Z,1.35
2023-07-25T18:40:08.740Z,1.58
2023-07-25T18:43:00.514Z,1.60
2023-07-25T18:45:49.814Z,1.17
2023-07-25T18:48:38.746Z,1.00
2023-07-25T18:51:28.794Z,1.20
2023-07-25T18:54:17.773Z,1.00
2023-07-25T18:57:07.352Z,1.35
2023-07-25T18:59:58.118Z,1.30
2023-07-25T19:02:47.363Z,1.10
2023-07-25T19:05:36.683Z,1.20
2023-07-25T19:08:25.949Z,1.60
2023-07-25T19:11:15.743Z,1.05
2023-07-25T19:14:05.059Z,0.80
2023-07-25T19:16:55.154Z,1.33
2023-07-25T19:19:43.942Z,1.27
2023-07-25T19:22:34.299Z,1.10
2023-07-25T19:25:24.289Z,0.73
2023-07-25T19:28:12.991Z,1.02
2023-07-25T19:31:01.935Z,1.13
2023-07-25T19:33:52.092Z,1.10
2023-07-25T19:36:40.923Z,1.20
2023-07-25T19:39:29.850Z,1.00
2023-07-25T19:42:19.242Z,1.15
2023-07-25T19:45:11.230Z,1.63
2023-07-25T19:48:01.995Z,5.53
2023-07-25T19:50:52.117Z,0.90
2023-07-25T19:53:42.122Z,1.60
2023-07-25T19:56:33.746Z,1.40
2023-07-25T19:59:22.870Z,1.20
2023-07-25T20:02:11.550Z,1.20
2023-07-25T20:05:02.595Z,1.10
2023-07-25T20:07:52.772Z,1.10
2023-07-25T20:10:41.418Z,1.70
2023-07-25T20:13:30.141Z,2.03
2023-07-25T20:16:18.950Z,1.40
2023-07-25T20:19:07.741Z,1.20
2023-07-25T20:21:57.308Z,0.93
2023-07-25T20:24:56.107Z,1.30
2023-07-25T20:27:44.866Z,1.45
2023-07-25T20:30:33.701Z,1.38
2023-07-25T20:33:22.574Z,1.35
2023-07-25T20:36:11.560Z,1.42
2023-07-25T20:39:00.417Z,1.50
2023-07-25T20:41:51.568Z,1.20
2023-07-25T20:44:42.292Z,1.65
2023-07-25T20:47:31.040Z,1.40
2023-07-25T20:50:19.781Z,1.45
2023-07-25T20:53:14.865Z,1.25
2023-07-25T20:56:03.607Z,1.10
2023-07-25T20:58:53.950Z,0.65
2023-07-25T21:01:43.025Z,1.35
